createdAt,value
2017-01-21T00:01:39.899Z,84.78
2017-01-21T00:02:28.860Z,84.98
2017-01-21T00:03:17.071Z,84.98
2017-01-21T00:04:06.613Z,84.88
2017-01-21T00:04:55.753Z,84.98
2017-01-21T00:05:44.379Z,84.88
2017-01-21T00:06:33.042Z,84.78
2017-01-21T00:07:22.184Z,84.5
2017-01-21T00:08:11.124Z,84.69
2017-01-21T00:08:59.456Z,84.98
2017-01-21T00:09:48.132Z,85.07
2017-01-21T00:10:37.111Z,84.78
2017-01-21T00:11:26.024Z,84.69
2017-01-21T00:12:14.771Z,84.69
2017-01-21T00:13:03.521Z,84.88
2017-01-21T00:13:52.605Z,84.88
2017-01-21T00:14:41.485Z,84.98
2017-01-21T00:15:30.725Z,84.88
2017-01-21T00:16:19.231Z,84.98
2017-01-21T00:17:07.681Z,84.98
2017-01-21T00:17:56.705Z,85.07
2017-01-21T00:18:45.305Z,85.17
2017-01-21T00:19:34.374Z,84.98
2017-01-21T00:20:23.369Z,84.88
2017-01-21T00:21:12.100Z,84.98
2017-01-21T00:22:00.307Z,85.07
2017-01-21T00:22:49.697Z,84.98
2017-01-21T00:23:38.879Z,84.98
2017-01-21T00:24:27.037Z,84.88
2017-01-21T00:25:16.195Z,84.88
2017-01-21T00:26:04.624Z,84.88
2017-01-21T00:26:53.853Z,85.07
2017-01-21T00:27:42.518Z,85.07
2017-01-21T00:28:30.854Z,84.98
2017-01-21T00:29:17.271Z,84.88
2017-01-21T00:29:57.741Z,84.78
2017-01-21T00:30:39.229Z,84.88
2017-01-21T00:31:19.673Z,84.78
2017-01-21T00:32:05.966Z,84.69
2017-01-21T00:32:46.460Z,84.78
2017-01-21T00:33:28.813Z,84.69
2017-01-21T00:34:10.872Z,84.69
2017-01-21T00:34:51.318Z,84.69
2017-01-21T00:35:33.603Z,84.59
2017-01-21T00:36:14.540Z,84.78
2017-01-21T00:36:55.006Z,84.88
2017-01-21T00:37:36.111Z,84.88
2017-01-21T00:38:18.333Z,84.69
2017-01-21T00:38:59.430Z,84.88
2017-01-21T00:39:41.389Z,85.17
2017-01-21T00:40:21.861Z,85.17
2017-01-21T00:41:03.214Z,85.07
2017-01-21T00:41:43.688Z,85.07
2017-01-21T00:42:24.203Z,84.69
2017-01-21T00:43:04.715Z,84.98
2017-01-21T00:43:45.194Z,84.59
2017-01-21T00:44:27.349Z,84.5
2017-01-21T00:45:08.518Z,84.78
2017-01-21T00:45:49.577Z,85.17
2017-01-21T00:46:30.784Z,84.88
2017-01-21T00:47:11.210Z,84.88
2017-01-21T00:47:52.268Z,84.98
2017-01-21T00:48:33.302Z,84.98
2017-01-21T00:49:13.816Z,84.98
2017-01-21T00:49:54.233Z,84.98
2017-01-21T00:50:35.532Z,85.07
2017-01-21T00:51:16.027Z,85.17
2017-01-21T00:51:56.501Z,85.17
2017-01-21T00:52:37.581Z,85.07
2017-01-21T00:53:18.106Z,84.78
2017-01-21T00:53:59.231Z,85.17
2017-01-21T00:54:41.281Z,85.07
2017-01-21T00:55:23.400Z,85.07
2017-01-21T00:56:06.741Z,85.17
2017-01-21T00:56:48.760Z,85.17
2017-01-21T00:57:29.244Z,85.74
2017-01-21T00:58:10.439Z,85.74
2017-01-21T00:58:52.032Z,85.74
2017-01-21T00:59:32.496Z,85.74
2017-01-21T01:00:12.997Z,85.45
2017-01-21T01:00:54.305Z,85.17
2017-01-21T01:01:36.372Z,85.64
2017-01-21T01:02:18.238Z,85.17
2017-01-21T01:02:59.330Z,85.36
2017-01-21T01:03:41.540Z,84.98
2017-01-21T01:04:22.049Z,85.03
2017-01-21T01:05:03.075Z,85.17
2017-01-21T01:05:43.623Z,85.45
2017-01-21T01:06:24.124Z,85.36
2017-01-21T01:07:05.355Z,85.17
2017-01-21T01:07:45.835Z,85.17
2017-01-21T01:08:26.347Z,84.98
2017-01-21T01:09:07.836Z,85.36
2017-01-21T01:09:48.392Z,85.17
2017-01-21T01:10:29.723Z,85.17
2017-01-21T01:11:10.237Z,85.36
2017-01-21T01:11:51.547Z,85.17
2017-01-21T01:12:33.022Z,85.26
2017-01-21T01:13:14.354Z,85.17
2017-01-21T01:13:55.761Z,85.93
2017-01-21T01:14:36.234Z,85.17
2017-01-21T01:15:18.345Z,85.13
2017-01-21T01:15:58.851Z,85.36
2017-01-21T01:16:40.124Z,85.17
2017-01-21T01:17:20.573Z,85.26
2017-01-21T01:18:01.141Z,85.26
2017-01-21T01:18:42.273Z,85.07
2017-01-21T01:19:22.737Z,84.98
2017-01-21T01:20:03.292Z,85.07
2017-01-21T01:20:43.824Z,85.55
2017-01-21T01:21:25.057Z,85.26
2017-01-21T01:22:06.369Z,85.45
2017-01-21T01:22:47.764Z,85.17
2017-01-21T01:23:28.196Z,85.36
2017-01-21T01:24:10.510Z,85.17
2017-01-21T01:24:52.464Z,85.17
2017-01-21T01:25:33.018Z,85.17
2017-01-21T01:26:13.416Z,85.31
2017-01-21T01:26:53.951Z,85.36
2017-01-21T01:27:35.441Z,85.26
2017-01-21T01:28:15.907Z,86.11
2017-01-21T01:28:57.857Z,85.88
2017-01-21T01:29:38.369Z,85.78
2017-01-21T01:30:19.630Z,85.69
2017-01-21T01:31:00.129Z,85.6
2017-01-21T01:31:40.654Z,85.6
2017-01-21T01:32:23.089Z,85.6
2017-01-21T01:33:03.599Z,85.93
2017-01-21T01:33:44.850Z,85.64
2017-01-21T01:34:26.044Z,85.69
2017-01-21T01:35:07.859Z,86.11
2017-01-21T01:35:48.361Z,85.93
2017-01-21T01:36:28.976Z,85.55
2017-01-21T01:37:09.464Z,86.02
2017-01-21T01:37:50.628Z,85.83
2017-01-21T01:38:31.088Z,86.11
2017-01-21T01:39:11.549Z,85.93
2017-01-21T01:39:56.242Z,86.02
2017-01-21T01:40:37.423Z,85.6
2017-01-21T01:41:17.911Z,85.83
2017-01-21T01:41:59.126Z,85.93
2017-01-21T01:42:39.611Z,86.11
2017-01-21T01:43:20.941Z,85.93
2017-01-21T01:44:02.317Z,85.55
2017-01-21T01:44:43.465Z,85.83
2017-01-21T01:45:25.270Z,85.17
2017-01-21T01:46:06.502Z,85.17
2017-01-21T01:46:48.931Z,85.93
2017-01-21T01:47:30.301Z,85.93
2017-01-21T01:48:10.733Z,85.17
2017-01-21T01:48:52.892Z,85.88
2017-01-21T01:49:33.856Z,85.13
2017-01-21T01:50:16.200Z,85.88
2017-01-21T01:50:58.499Z,85.6
2017-01-21T01:51:39.577Z,85.97
2017-01-21T01:52:22.715Z,85.78
2017-01-21T01:53:03.840Z,85.78
2017-01-21T01:53:45.086Z,85.6
2017-01-21T01:54:25.558Z,85.78
2017-01-21T01:55:06.933Z,85.78
2017-01-21T01:55:51.722Z,85.78
2017-01-21T01:56:33.049Z,85.36
2017-01-21T01:57:13.569Z,85.78
2017-01-21T01:57:54.023Z,85.5
2017-01-21T01:58:34.491Z,85.78
2017-01-21T01:59:15.058Z,85.69
2017-01-21T01:59:56.499Z,85.5
2017-01-21T02:00:37.903Z,85.69
2017-01-21T02:01:18.395Z,85.69
2017-01-21T02:01:59.944Z,85.78
2017-01-21T02:02:41.121Z,85.78
2017-01-21T02:03:22.223Z,85.97
2017-01-21T02:04:02.763Z,85.97
2017-01-21T02:04:43.234Z,85.69
2017-01-21T02:05:26.533Z,85.88
2017-01-21T02:06:07.040Z,85.69
2017-01-21T02:06:47.540Z,85.78
2017-01-21T02:07:28.032Z,85.78
2017-01-21T02:08:09.355Z,85.78
2017-01-21T02:08:49.860Z,85.5
2017-01-21T02:09:30.341Z,85.78
2017-01-21T02:10:11.651Z,85.5
2017-01-21T02:10:53.032Z,85.78
2017-01-21T02:11:34.218Z,85.69
2017-01-21T02:12:14.706Z,85.6
2017-01-21T02:12:55.744Z,85.6
2017-01-21T02:13:36.222Z,85.5
2017-01-21T02:14:16.764Z,85.6
2017-01-21T02:14:57.226Z,85.6
2017-01-21T02:15:37.814Z,85.78
2017-01-21T02:16:18.389Z,85.78
2017-01-21T02:16:59.626Z,85.69
2017-01-21T02:17:40.090Z,85.88
2017-01-21T02:18:21.440Z,85.78
2017-01-21T02:19:02.519Z,85.69
2017-01-21T02:19:43.571Z,85.69
2017-01-21T02:20:24.624Z,85.5
2017-01-21T02:21:05.179Z,85.97
2017-01-21T02:21:46.407Z,85.88
2017-01-21T02:22:27.057Z,85.93
2017-01-21T02:23:11.227Z,86.07
2017-01-21T02:23:51.698Z,85.5
2017-01-21T02:24:32.198Z,85.69
2017-01-21T02:25:12.719Z,85.78
2017-01-21T02:25:54.000Z,85.78
2017-01-21T02:26:35.081Z,85.78
2017-01-21T02:27:15.578Z,85.31
2017-01-21T02:27:56.745Z,85.6
2017-01-21T02:28:38.137Z,85.78
2017-01-21T02:29:18.687Z,85.6
2017-01-21T02:29:59.172Z,85.6
2017-01-21T02:30:39.816Z,85.69
2017-01-21T02:31:20.918Z,85.69
2017-01-21T02:32:02.363Z,85.97
2017-01-21T02:32:42.891Z,85.88
2017-01-21T02:33:25.232Z,85.78
2017-01-21T02:34:06.482Z,85.97
2017-01-21T02:34:47.162Z,85.97
2017-01-21T02:35:29.112Z,85.69
2017-01-21T02:36:09.647Z,85.31
2017-01-21T02:36:51.246Z,86.02
2017-01-21T02:37:32.375Z,85.17
2017-01-21T02:38:13.503Z,85.17
2017-01-21T02:38:54.816Z,85.26
2017-01-21T02:39:35.278Z,85.31
2017-01-21T02:40:15.774Z,85.13
2017-01-21T02:40:57.091Z,85.36
2017-01-21T02:41:42.415Z,85.31
2017-01-21T02:42:23.754Z,85.13
2017-01-21T02:43:04.221Z,85.07
2017-01-21T02:43:44.725Z,85.45
2017-01-21T02:44:25.714Z,85.45
2017-01-21T02:45:09.756Z,85.13
2017-01-21T02:45:50.284Z,85.26
2017-01-21T02:46:30.712Z,85.17
2017-01-21T02:47:11.162Z,85.17
2017-01-21T02:47:51.688Z,85.07
2017-01-21T02:48:32.156Z,84.88
2017-01-21T02:49:16.227Z,84.98
2017-01-21T02:49:56.752Z,84.98
2017-01-21T02:50:37.290Z,84.98
2017-01-21T02:51:17.661Z,85.07
2017-01-21T02:51:58.127Z,85.41
2017-01-21T02:52:40.467Z,85.36
2017-01-21T02:53:20.923Z,85.45
2017-01-21T02:54:01.406Z,85.36
2017-01-21T02:54:41.866Z,85.26
2017-01-21T02:55:23.313Z,85.36
2017-01-21T02:56:03.808Z,85.36
2017-01-21T02:56:45.744Z,85.36
2017-01-21T02:57:27.058Z,85.45
2017-01-21T02:58:09.280Z,85.31
2017-01-21T02:58:49.679Z,85.26
2017-01-21T02:59:30.249Z,85.36
2017-01-21T03:00:10.672Z,85.36
2017-01-21T03:00:51.175Z,85.31
2017-01-21T03:01:31.636Z,85.31
2017-01-21T03:02:12.856Z,85.31
2017-01-21T03:02:54.165Z,85.13
2017-01-21T03:03:34.601Z,85.07
2017-01-21T03:04:15.159Z,85.03
2017-01-21T03:04:58.266Z,85.07
2017-01-21T03:05:40.465Z,85.03
2017-01-21T03:06:20.922Z,85.17
2017-01-21T03:07:03.752Z,85.03
2017-01-21T03:07:46.024Z,85.17
2017-01-21T03:08:27.884Z,85.07
2017-01-21T03:09:08.372Z,84.98
2017-01-21T03:09:48.836Z,85.22
2017-01-21T03:48:52.901Z,85.97
2017-01-21T03:49:41.286Z,85.97
2017-01-21T03:50:30.192Z,86.07
2017-01-21T03:51:18.497Z,86.07
2017-01-21T03:52:07.844Z,86.07
2017-01-21T03:52:56.752Z,85.97
2017-01-21T03:53:45.962Z,85.97
2017-01-21T03:54:34.422Z,85.78
2017-01-21T03:55:22.548Z,85.78
2017-01-21T03:56:11.965Z,85.97
2017-01-21T03:56:59.747Z,85.69
2017-01-21T03:57:48.264Z,85.78
2017-01-21T03:58:37.000Z,85.69
2017-01-21T03:59:25.378Z,85.5
2017-01-21T04:00:14.490Z,85.69
2017-01-21T04:01:03.319Z,85.69
2017-01-21T04:01:51.837Z,85.69
2017-01-21T04:02:40.623Z,85.5
2017-01-21T04:03:29.353Z,85.69
2017-01-21T04:04:18.124Z,85.69
2017-01-21T04:05:06.529Z,85.6
2017-01-21T04:05:55.669Z,85.6
2017-01-21T04:06:44.254Z,85.5
2017-01-21T04:07:33.265Z,85.78
2017-01-21T04:08:21.521Z,85.78
2017-01-21T04:09:11.393Z,85.6
2017-01-21T04:10:00.326Z,85.69
2017-01-21T04:10:49.130Z,85.78
2017-01-21T04:11:38.382Z,85.97
2017-01-21T04:12:27.757Z,85.6
2017-01-21T04:13:15.974Z,85.6
2017-01-21T04:14:04.841Z,85.5
2017-01-21T04:14:53.224Z,85.5
2017-01-21T04:15:42.645Z,85.69
2017-01-21T04:16:31.224Z,85.78
2017-01-21T04:17:19.892Z,85.88
2017-01-21T04:18:09.283Z,85.83
2017-01-21T04:18:58.924Z,85.74
2017-01-21T04:19:47.833Z,85.17
2017-01-21T04:20:36.396Z,85.17
2017-01-21T04:21:24.987Z,85.17
2017-01-21T04:22:14.154Z,85.17
2017-01-21T04:23:02.457Z,85.45
2017-01-21T04:23:51.379Z,85.31
2017-01-21T04:24:40.244Z,85.17
2017-01-21T04:25:28.880Z,85.26
2017-01-21T04:26:17.814Z,85.26
2017-01-21T04:27:06.264Z,85.07
2017-01-21T04:27:55.888Z,85.22
2017-01-21T04:28:39.690Z,85.07
2017-01-21T04:29:21.081Z,85.26
2017-01-21T04:30:02.481Z,85.36
2017-01-21T04:32:21.502Z,85.07
2017-01-21T04:33:09.441Z,85.36
2017-01-21T04:35:03.469Z,85.36
2017-01-21T04:35:52.678Z,85.17
2017-01-21T04:36:41.038Z,85.07
2017-01-21T04:37:29.561Z,85.45
2017-01-21T04:38:18.541Z,85.55
2017-01-21T04:39:07.504Z,85.55
2017-01-21T04:39:56.230Z,85.45
2017-01-21T04:40:44.855Z,85.36
2017-01-21T04:41:33.715Z,85.36
2017-01-21T04:42:22.044Z,85.45
2017-01-21T04:43:11.003Z,85.36
2017-01-21T04:43:59.823Z,85.55
2017-01-21T04:44:46.474Z,85.36
2017-01-21T04:45:35.360Z,85.36
2017-01-21T04:46:24.175Z,85.74
2017-01-21T04:47:13.254Z,85.55
2017-01-21T04:48:01.555Z,85.36
2017-01-21T04:48:50.813Z,85.74
2017-01-21T04:49:39.481Z,85.45
2017-01-21T04:50:28.679Z,85.64
2017-01-21T04:51:17.468Z,85.45
2017-01-21T04:52:06.393Z,85.36
2017-01-21T04:52:55.476Z,85.36
2017-01-21T04:53:44.258Z,85.45
2017-01-21T04:54:33.066Z,85.55
2017-01-21T04:55:22.691Z,85.45
2017-01-21T04:56:11.320Z,85.45
2017-01-21T04:57:00.837Z,85.45
2017-01-21T04:57:49.781Z,85.07
2017-01-21T04:58:38.740Z,85.17
2017-01-21T04:59:27.533Z,85.26
2017-01-21T05:00:16.313Z,85.26
2017-01-21T05:01:04.534Z,85.55
2017-01-21T05:01:53.786Z,85.45
2017-01-21T05:02:42.751Z,85.64
2017-01-21T05:03:31.196Z,85.45
2017-01-21T05:04:20.279Z,85.55
2017-01-21T05:05:08.935Z,85.64
2017-01-21T05:05:57.308Z,85.74
2017-01-21T05:06:46.485Z,84.98
2017-01-21T05:07:35.309Z,85.36
2017-01-21T05:08:23.974Z,84.88
2017-01-21T05:09:12.485Z,85.17
2017-01-21T05:10:01.840Z,84.98
2017-01-21T05:10:50.273Z,85.17
2017-01-21T05:11:38.815Z,84.98
2017-01-21T05:12:27.562Z,84.88
2017-01-21T05:13:16.502Z,84.98
2017-01-21T05:14:05.216Z,84.98
2017-01-21T05:14:49.698Z,85.17
2017-01-21T05:15:30.221Z,84.88
2017-01-21T05:16:12.360Z,85.17
2017-01-21T05:16:56.204Z,85.17
2017-01-21T05:17:39.210Z,84.78
2017-01-21T05:18:20.487Z,85.26
2017-01-21T05:19:00.965Z,84.78
2017-01-21T05:19:43.338Z,84.98
2017-01-21T05:20:24.564Z,84.69
2017-01-21T05:21:04.957Z,84.88
2017-01-21T05:21:47.969Z,85.07
2017-01-21T05:22:28.481Z,85.07
2017-01-21T05:23:11.781Z,84.78
2017-01-21T05:23:54.932Z,85.07
2017-01-21T05:24:36.405Z,84.5
2017-01-21T05:25:19.694Z,84.59
2017-01-21T05:26:06.790Z,84.5
2017-01-21T05:26:48.711Z,84.69
2017-01-21T05:27:30.852Z,84.59
2017-01-21T05:28:11.340Z,84.5
2017-01-21T05:28:55.285Z,84.69
2017-01-21T05:29:35.737Z,84.59
2017-01-21T05:30:16.780Z,84.78
2017-01-21T05:30:58.871Z,84.5
2017-01-21T05:31:41.814Z,84.69
2017-01-21T05:32:23.070Z,84.59
2017-01-21T05:33:03.498Z,85.07
2017-01-21T05:33:44.006Z,84.69
2017-01-21T05:34:25.265Z,84.69
2017-01-21T05:35:09.249Z,85.17
2017-01-21T05:35:50.793Z,84.78
2017-01-21T05:36:31.881Z,85.07
2017-01-21T05:37:14.213Z,84.69
2017-01-21T05:37:57.217Z,84.69
2017-01-21T05:38:37.723Z,84.41
2017-01-21T05:39:18.997Z,84.59
2017-01-21T05:40:00.945Z,84.69
2017-01-21T05:40:41.466Z,84.88
2017-01-21T05:41:24.193Z,84.69
2017-01-21T05:42:05.578Z,84.78
2017-01-21T05:42:46.051Z,84.59
2017-01-21T05:43:27.352Z,84.59
2017-01-21T05:44:08.693Z,84.69
2017-01-21T05:44:49.160Z,84.69
2017-01-21T05:45:33.193Z,84.88
2017-01-21T05:46:13.728Z,84.78
2017-01-21T05:46:56.877Z,84.78
2017-01-21T05:47:38.699Z,84.78
2017-01-21T05:48:19.181Z,84.88
2017-01-21T05:48:59.645Z,84.88
2017-01-21T05:49:40.217Z,84.59
2017-01-21T05:50:21.523Z,84.78
2017-01-21T05:51:03.773Z,84.69
2017-01-21T05:51:44.272Z,84.59
2017-01-21T05:52:24.763Z,84.88
2017-01-21T05:53:05.910Z,84.98
2017-01-21T05:53:46.473Z,84.69
2017-01-21T05:54:26.940Z,84.59
2017-01-21T05:55:10.191Z,84.78
2017-01-21T05:55:52.390Z,84.98
2017-01-21T05:56:33.537Z,84.98
2017-01-21T05:57:13.989Z,84.98
2017-01-21T05:57:54.493Z,85.17
2017-01-21T05:58:35.887Z,85.07
2017-01-21T05:59:16.375Z,85.07
2017-01-21T05:59:58.704Z,84.88
2017-01-21T06:00:39.208Z,84.88
2017-01-21T06:01:20.855Z,84.78
2017-01-21T06:02:03.738Z,84.98
2017-01-21T06:02:46.861Z,84.88
2017-01-21T06:03:29.237Z,84.88
2017-01-21T06:04:09.795Z,84.69
2017-01-21T06:04:51.995Z,84.78
2017-01-21T06:05:33.394Z,84.69
2017-01-21T06:06:17.150Z,84.78
2017-01-21T06:06:58.159Z,84.98
2017-01-21T06:07:39.414Z,85.17
2017-01-21T06:08:19.946Z,84.98
2017-01-21T06:09:01.194Z,84.98
2017-01-21T06:09:43.201Z,85.07
2017-01-21T06:10:24.572Z,84.88
2017-01-21T06:11:05.635Z,84.78
2017-01-21T06:11:46.146Z,84.78
2017-01-21T06:12:27.510Z,84.88
2017-01-21T06:13:09.752Z,84.78
2017-01-21T06:13:52.973Z,85.07
2017-01-21T06:14:34.047Z,84.98
2017-01-21T06:15:14.482Z,84.98
2017-01-21T06:15:55.065Z,84.98
2017-01-21T06:16:36.200Z,84.69
2017-01-21T06:17:18.430Z,84.98
2017-01-21T06:18:00.814Z,84.69
2017-01-21T06:18:41.948Z,84.88
2017-01-21T06:19:23.076Z,84.88
2017-01-21T06:20:03.767Z,84.88
2017-01-21T06:20:44.202Z,84.88
2017-01-21T06:21:24.802Z,84.69
2017-01-21T06:22:05.918Z,84.41
2017-01-21T06:22:46.986Z,84.69
2017-01-21T06:23:27.527Z,84.78
2017-01-21T06:24:08.663Z,84.88
2017-01-21T06:24:50.082Z,84.78
2017-01-21T06:25:31.166Z,84.78
2017-01-21T06:26:11.693Z,84.98
2017-01-21T06:26:53.000Z,84.69
2017-01-21T06:27:34.946Z,84.69
2017-01-21T06:28:16.805Z,84.88
2017-01-21T06:28:57.530Z,84.88
2017-01-21T06:29:38.986Z,84.98
2017-01-21T06:30:22.273Z,84.98
2017-01-21T06:31:03.474Z,84.88
2017-01-21T06:31:43.963Z,84.98
2017-01-21T06:32:26.781Z,84.98
2017-01-21T06:33:07.245Z,84.88
2017-01-21T06:33:47.742Z,84.98
2017-01-21T06:34:28.201Z,84.98
2017-01-21T06:35:08.716Z,84.41
2017-01-21T06:35:49.221Z,84.41
2017-01-21T06:36:29.720Z,84.41
2017-01-21T06:37:10.132Z,84.69
2017-01-21T06:37:50.638Z,84.31
2017-01-21T06:38:32.964Z,84.88
2017-01-21T06:39:13.443Z,84.69
2017-01-21T06:39:54.700Z,84.31
2017-01-21T06:40:35.184Z,84.41
2017-01-21T06:41:15.677Z,84.69
2017-01-21T06:41:56.131Z,84.78
2017-01-21T06:42:36.671Z,84.78
2017-01-21T06:43:18.042Z,84.69
2017-01-21T06:44:06.598Z,84.41
2017-01-21T06:44:50.405Z,84.31
2017-01-21T06:45:30.869Z,84.59
2017-01-21T06:46:11.581Z,84.78
2017-01-21T06:46:52.378Z,84.59
2017-01-21T06:47:34.412Z,84.59
2017-01-21T06:48:20.785Z,84.31
2017-01-21T06:49:02.564Z,84.59
2017-01-21T06:49:44.522Z,84.69
2017-01-21T06:50:26.844Z,84.69
2017-01-21T06:51:07.796Z,84.5
2017-01-21T06:51:53.646Z,84.22
2017-01-21T06:52:36.136Z,84.22
2017-01-21T06:53:18.778Z,84.12
2017-01-21T06:53:59.223Z,84.12
2017-01-21T06:54:40.814Z,84.03
2017-01-21T06:55:23.696Z,83.94
2017-01-21T06:56:05.697Z,84.03
2017-01-21T06:56:47.639Z,84.22
2017-01-21T06:57:28.913Z,84.31
2017-01-21T06:58:11.706Z,84.5
2017-01-21T06:58:53.472Z,84.03
2017-01-21T06:59:34.945Z,84.5
2017-01-21T07:00:15.507Z,84.41
2017-01-21T07:00:56.823Z,84.22
2017-01-21T07:01:38.050Z,84.22
2017-01-21T07:02:20.169Z,84.31
2017-01-21T07:03:02.817Z,84.41
2017-01-21T07:03:43.587Z,84.12
2017-01-21T07:04:24.023Z,84.12
2017-01-21T07:05:05.346Z,84.12
2017-01-21T07:05:46.912Z,84.41
2017-01-21T07:06:28.903Z,84.22
2017-01-21T07:07:09.372Z,84.22
2017-01-21T07:07:49.852Z,84.41
2017-01-21T07:08:31.750Z,84.03
2017-01-21T07:09:12.839Z,84.5
2017-01-21T07:09:54.177Z,84.12
2017-01-21T07:10:35.418Z,84.22
2017-01-21T07:11:15.894Z,84.12
2017-01-21T07:11:56.359Z,84.03
2017-01-21T07:12:39.360Z,84.22
2017-01-21T07:13:19.943Z,84.03
2017-01-21T07:14:01.389Z,84.03
2017-01-21T07:14:41.904Z,84.41
2017-01-21T07:15:23.275Z,84.12
2017-01-21T07:16:03.765Z,84.31
2017-01-21T07:16:44.276Z,84.03
2017-01-21T07:17:24.802Z,84.22
2017-01-21T07:18:05.246Z,84.22
2017-01-21T07:18:46.307Z,84.41
2017-01-21T07:19:26.743Z,84.12
2017-01-21T07:20:07.293Z,84.12
2017-01-21T07:20:49.544Z,84.41
2017-01-21T07:21:30.026Z,84.22
2017-01-21T07:22:12.370Z,84.41
2017-01-21T07:22:52.868Z,84.12
2017-01-21T07:23:33.416Z,84.22
2017-01-21T07:24:13.811Z,84.5
2017-01-21T07:24:54.340Z,84.03
2017-01-21T07:25:34.911Z,84.31
2017-01-21T07:26:16.432Z,84.41
2017-01-21T07:26:56.909Z,84.41
2017-01-21T07:27:37.954Z,84.41
2017-01-21T07:28:19.789Z,84.41
2017-01-21T07:29:02.779Z,84.41
2017-01-21T07:29:44.755Z,84.22
2017-01-21T07:30:26.191Z,84.5
2017-01-21T07:31:10.202Z,84.41
2017-01-21T07:31:51.366Z,84.41
2017-01-21T07:32:31.884Z,84.03
2017-01-21T07:33:13.036Z,84.31
2017-01-21T07:33:54.401Z,84.03
2017-01-21T07:34:36.381Z,84.03
2017-01-21T07:35:16.868Z,84.12
2017-01-21T07:35:57.403Z,84.5
2017-01-21T07:36:37.872Z,84.22
2017-01-21T07:37:19.234Z,84.12
2017-01-21T07:37:59.687Z,84.5
2017-01-21T07:38:40.138Z,84.5
2017-01-21T07:39:20.632Z,84.41
2017-01-21T07:40:01.136Z,84.31
2017-01-21T07:40:42.271Z,83.55
2017-01-21T07:41:23.536Z,84.5
2017-01-21T07:42:04.712Z,83.74
2017-01-21T07:42:46.075Z,83.97
2017-01-21T07:43:26.603Z,83.74
2017-01-21T07:44:07.083Z,84.03
2017-01-21T07:44:48.277Z,83.97
2017-01-21T07:45:28.783Z,83.65
2017-01-21T07:46:09.309Z,83.69
2017-01-21T07:46:50.558Z,83.5
2017-01-21T07:47:31.095Z,83.65
2017-01-21T07:48:11.647Z,83.69
2017-01-21T07:48:52.095Z,83.97
2017-01-21T07:49:32.746Z,83.78
2017-01-21T07:50:14.879Z,83.84
2017-01-21T07:50:55.880Z,83.69
2017-01-21T07:51:37.272Z,83.88
2017-01-21T07:52:18.465Z,83.69
2017-01-21T07:52:59.566Z,83.59
2017-01-21T07:53:40.798Z,83.97
2017-01-21T07:54:21.261Z,83.69
2017-01-21T07:55:02.542Z,83.78
2017-01-21T07:55:43.017Z,83.78
2017-01-21T07:56:24.078Z,83.69
2017-01-21T07:57:04.605Z,83.78
2017-01-21T07:57:45.090Z,83.88
2017-01-21T07:58:26.468Z,83.78
2017-01-21T07:59:06.912Z,83.88
2017-01-21T07:59:47.439Z,83.4
2017-01-21T08:00:28.765Z,83.69
2017-01-21T08:01:09.266Z,83.69
2017-01-21T08:01:51.451Z,83.59
2017-01-21T08:02:31.963Z,83.78
2017-01-21T08:03:14.386Z,83.5
2017-01-21T08:03:55.771Z,83.59
2017-01-21T08:04:38.035Z,83.59
2017-01-21T08:05:19.467Z,83.78
2017-01-21T08:05:59.892Z,83.31
2017-01-21T08:06:41.038Z,83.88
2017-01-21T08:07:22.218Z,83.31
2017-01-21T08:08:02.737Z,83.59
2017-01-21T08:08:43.222Z,83.69
2017-01-21T08:09:24.408Z,83.59
2017-01-21T08:10:05.016Z,83.5
2017-01-21T08:10:45.472Z,83.69
2017-01-21T08:11:27.820Z,83.59
2017-01-21T08:12:10.783Z,83.59
2017-01-21T08:12:53.177Z,83.59
2017-01-21T08:13:33.720Z,83.59
2017-01-21T08:14:15.021Z,83.59
2017-01-21T08:14:55.561Z,83.69
2017-01-21T08:15:37.816Z,83.69
2017-01-21T08:16:20.980Z,83.59
2017-01-21T08:17:01.444Z,83.31
2017-01-21T08:17:44.283Z,83.03
2017-01-21T08:18:26.256Z,83.22
2017-01-21T08:19:06.700Z,83.03
2017-01-21T08:19:47.215Z,83.22
2017-01-21T08:20:27.751Z,83.03
2017-01-21T08:21:08.258Z,83.22
2017-01-21T08:21:48.801Z,82.84
2017-01-21T08:22:29.856Z,82.74
2017-01-21T08:23:10.372Z,82.93
2017-01-21T08:23:50.895Z,82.93
2017-01-21T08:24:31.552Z,82.84
2017-01-21T08:25:12.565Z,83.12
2017-01-21T08:25:53.789Z,83.12
2017-01-21T08:26:34.889Z,83.22
2017-01-21T08:27:15.469Z,82.93
2017-01-21T08:27:57.293Z,83.03
2017-01-21T08:28:37.795Z,83.03
2017-01-21T08:29:18.365Z,83.03
2017-01-21T08:29:58.809Z,83.03
2017-01-21T08:30:39.316Z,82.65
2017-01-21T08:31:19.883Z,82.55
2017-01-21T08:32:00.344Z,82.65
2017-01-21T08:32:41.007Z,82.55
2017-01-21T08:33:21.534Z,82.74
2017-01-21T08:34:02.675Z,82.65
2017-01-21T08:34:43.941Z,83.03
2017-01-21T08:35:24.458Z,83.22
2017-01-21T08:36:05.753Z,83.03
2017-01-21T08:36:48.775Z,82.93
2017-01-21T08:37:29.957Z,82.93
2017-01-21T08:38:10.417Z,82.84
2017-01-21T08:38:50.981Z,82.74
2017-01-21T08:39:32.097Z,82.74
2017-01-21T08:40:13.179Z,82.65
2017-01-21T08:40:53.694Z,82.46
2017-01-21T08:41:36.057Z,82.46
2017-01-21T08:42:16.569Z,82.74
2017-01-21T08:42:57.043Z,82.36
2017-01-21T08:43:37.561Z,82.65
2017-01-21T08:44:19.674Z,82.65
2017-01-21T08:49:45.032Z,82.59
2017-01-21T08:50:33.785Z,82.78
2017-01-21T08:51:25.354Z,82.59
2017-01-21T08:52:14.111Z,82.78
2017-01-21T08:53:03.078Z,82.78
2017-01-21T08:53:51.182Z,82.69
2017-01-21T08:54:40.094Z,82.59
2017-01-21T08:55:28.214Z,82.78
2017-01-21T08:56:16.749Z,82.69
2017-01-21T08:57:06.237Z,82.12
2017-01-21T08:57:54.431Z,82.21
2017-01-21T08:58:43.057Z,82.5
2017-01-21T08:59:31.990Z,82.21
2017-01-21T09:00:20.823Z,81.93
2017-01-21T09:01:10.204Z,82.12
2017-01-21T09:01:58.502Z,82.5
2017-01-21T09:02:47.337Z,82.12
2017-01-21T09:03:35.860Z,82.03
2017-01-21T09:04:25.030Z,82.12
2017-01-21T09:05:13.664Z,82.12
2017-01-21T09:06:02.451Z,82.21
2017-01-21T09:06:51.081Z,81.93
2017-01-21T09:07:39.875Z,82.12
2017-01-21T09:08:29.081Z,82.31
2017-01-21T09:09:18.225Z,82.12
2017-01-21T09:10:06.550Z,82.69
2017-01-21T09:10:55.767Z,82.59
2017-01-21T09:11:44.661Z,82.78
2017-01-21T09:12:33.486Z,82.59
2017-01-21T09:13:22.841Z,82.59
2017-01-21T09:14:11.627Z,82.97
2017-01-21T09:15:01.883Z,82.69
2017-01-21T09:15:50.283Z,82.12
2017-01-21T09:16:39.274Z,82.31
2017-01-21T09:17:27.652Z,82.12
2017-01-21T09:18:16.833Z,82.5
2017-01-21T09:19:05.797Z,82.31
2017-01-21T09:19:54.754Z,82.21
2017-01-21T09:20:43.735Z,82.31
2017-01-21T09:21:31.899Z,82.4
2017-01-21T09:22:21.225Z,81.65
2017-01-21T09:23:09.997Z,82.03
2017-01-21T09:23:58.639Z,81.74
2017-01-21T09:24:47.775Z,82.03
2017-01-21T09:25:32.453Z,81.74
2017-01-21T09:26:12.993Z,81.93
2017-01-21T09:26:53.456Z,81.74
2017-01-21T09:27:33.974Z,81.45
2017-01-21T09:28:15.226Z,81.45
2017-01-21T09:28:55.743Z,81.45
2017-01-21T09:29:37.006Z,81.74
2017-01-21T09:30:18.430Z,81.65
2017-01-21T09:30:58.789Z,81.65
2017-01-21T09:31:40.148Z,81.74
2017-01-21T09:32:21.629Z,81.45
2017-01-21T09:33:02.630Z,81.45
2017-01-21T09:33:43.169Z,81.36
2017-01-21T09:34:23.703Z,81.55
2017-01-21T09:35:04.201Z,81.78
2017-01-21T09:35:44.674Z,81.36
2017-01-21T09:36:25.234Z,81.36
2017-01-21T09:37:05.825Z,81.55
2017-01-21T09:37:47.648Z,81.55
2017-01-21T09:38:28.223Z,81.49
2017-01-21T09:39:08.758Z,81.45
2017-01-21T09:39:49.181Z,81.55
2017-01-21T09:40:30.604Z,81.65
2017-01-21T09:41:11.129Z,81.4
2017-01-21T09:41:52.199Z,81.59
2017-01-21T09:42:32.645Z,81.3
2017-01-21T09:43:13.191Z,81.3
2017-01-21T09:43:55.203Z,81.21
2017-01-21T09:44:35.730Z,81.12
2017-01-21T09:45:16.826Z,81.02
2017-01-21T09:45:57.607Z,80.93
2017-01-21T09:46:38.920Z,81.21
2017-01-21T09:47:19.482Z,80.93
2017-01-21T09:48:00.763Z,81.12
2017-01-21T09:48:42.022Z,80.93
2017-01-21T09:49:22.464Z,81.21
2017-01-21T09:50:02.967Z,81.12
2017-01-21T09:50:43.415Z,80.93
2017-01-21T09:51:24.004Z,81.21
2017-01-21T09:52:06.099Z,81.12
2017-01-21T09:52:46.624Z,80.83
2017-01-21T09:53:28.009Z,81.21
2017-01-21T09:54:09.388Z,81.02
2017-01-21T09:54:49.916Z,81.12
2017-01-21T09:55:30.393Z,81.21
2017-01-21T09:56:12.628Z,81.12
2017-01-21T09:56:53.059Z,81.3
2017-01-21T09:57:33.544Z,81.21
2017-01-21T09:58:14.008Z,80.93
2017-01-21T09:58:54.511Z,80.93
2017-01-21T09:59:35.035Z,81.3
2017-01-21T10:00:15.507Z,81.12
2017-01-21T10:00:56.163Z,81.12
2017-01-21T10:01:36.605Z,81.4